createdAt,value
2017-12-12T00:01:46.177Z,33.87
2017-12-12T00:04:13.697Z,28.20
2017-12-12T00:06:41.225Z,31.20
2017-12-12T00:09:08.994Z,26.90
2017-12-12T00:11:36.531Z,31.40
2017-12-12T00:14:04.049Z,27.57
2017-12-12T00:16:31.625Z,24.10
2017-12-12T00:18:59.136Z,24.70
2017-12-12T00:21:26.661Z,35.33
2017-12-12T00:23:54.214Z,28.93
2017-12-12T00:26:21.742Z,30.20
2017-12-12T00:28:49.317Z,26.57
2017-12-12T00:31:16.840Z,26.10
2017-12-12T00:33:44.436Z,25.93
2017-12-12T00:36:11.963Z,26.37
2017-12-12T00:38:39.506Z,30.10
2017-12-12T00:41:07.020Z,27.50
2017-12-12T00:43:34.590Z,29.17
2017-12-12T00:46:02.104Z,26.73
2017-12-12T00:48:29.615Z,25.27
2017-12-12T00:50:57.149Z,28.10
2017-12-12T00:53:24.682Z,29.30
2017-12-12T00:55:52.266Z,28.27
2017-12-12T00:58:19.777Z,39.83
2017-12-12T01:00:47.288Z,33.63
2017-12-12T01:03:14.819Z,34.10
2017-12-12T01:05:42.336Z,41.40
2017-12-12T01:08:09.909Z,33.20
2017-12-12T01:10:37.438Z,39.33
2017-12-12T01:13:04.972Z,34.47
2017-12-12T01:15:32.528Z,32.20
2017-12-12T01:18:00.057Z,33.87
2017-12-12T01:20:27.612Z,31.53
2017-12-12T01:22:55.152Z,41.60
2017-12-12T01:25:22.672Z,36.70
2017-12-12T01:27:50.204Z,28.53
2017-12-12T01:30:17.749Z,34.03
2017-12-12T01:32:45.340Z,31.10
2017-12-12T01:35:12.934Z,29.40
2017-12-12T01:37:40.461Z,25.83
2017-12-12T01:40:07.984Z,34.20
2017-12-12T01:42:35.544Z,29.70
2017-12-12T01:45:03.135Z,31.00
2017-12-12T01:47:30.685Z,30.20
2017-12-12T01:49:58.213Z,33.10
2017-12-12T01:52:25.828Z,38.07
2017-12-12T01:54:53.394Z,35.57
2017-12-12T01:57:20.973Z,37.83
2017-12-12T01:59:48.568Z,30.83
2017-12-12T02:02:16.103Z,51.87
2017-12-12T02:04:43.653Z,34.93
2017-12-12T02:07:11.237Z,39.17
2017-12-12T02:09:38.764Z,37.33
2017-12-12T02:12:06.358Z,30.30
2017-12-12T02:14:33.885Z,34.73
2017-12-12T02:17:01.428Z,32.63
2017-12-12T02:19:28.992Z,42.63
2017-12-12T02:21:56.553Z,37.70
2017-12-12T02:24:24.133Z,26.70
2017-12-12T02:26:51.682Z,24.90
2017-12-12T02:29:19.234Z,32.23
2017-12-12T02:31:46.812Z,31.57
2017-12-12T02:34:14.369Z,38.53
2017-12-12T02:36:41.914Z,26.77
2017-12-12T02:39:09.459Z,16.43
2017-12-12T02:41:36.989Z,22.77
2017-12-12T02:44:04.566Z,25.80
2017-12-12T02:46:32.110Z,32.53
2017-12-12T02:48:59.696Z,27.57
2017-12-12T02:51:27.233Z,27.17
2017-12-12T02:53:54.789Z,25.70
2017-12-12T02:56:22.337Z,31.67
2017-12-12T02:58:49.909Z,35.10
2017-12-12T03:01:17.456Z,33.57
2017-12-12T03:03:45.036Z,37.13
2017-12-12T03:06:12.576Z,31.90
2017-12-12T03:08:40.117Z,32.40
2017-12-12T03:11:07.701Z,39.63
2017-12-12T03:13:35.237Z,44.93
2017-12-12T03:16:03.754Z,36.10
2017-12-12T03:18:31.288Z,36.27
2017-12-12T03:20:58.823Z,39.03
2017-12-12T03:23:26.500Z,36.00
2017-12-12T03:25:54.038Z,43.77
2017-12-12T03:28:21.582Z,46.47
2017-12-12T03:30:49.169Z,36.33
2017-12-12T03:33:16.713Z,37.87
2017-12-12T03:35:44.245Z,38.47
2017-12-12T03:38:11.845Z,37.50
2017-12-12T03:40:39.381Z,43.57
2017-12-12T03:43:06.958Z,45.93
2017-12-12T03:45:34.543Z,38.57
2017-12-12T03:48:02.081Z,35.27
2017-12-12T03:50:29.617Z,40.23
2017-12-12T03:52:57.186Z,38.10
2017-12-12T03:55:24.772Z,37.20
2017-12-12T03:57:52.290Z,40.73
2017-12-12T04:00:19.893Z,43.17
2017-12-12T04:02:47.437Z,38.73
2017-12-12T04:05:14.983Z,46.03
2017-12-12T04:07:42.552Z,39.97
2017-12-12T04:10:10.084Z,37.33
2017-12-12T04:12:37.676Z,39.13
2017-12-12T04:15:05.234Z,40.03
2017-12-12T04:17:32.764Z,44.83
2017-12-12T04:20:00.312Z,38.30
2017-12-12T04:22:27.949Z,40.73
2017-12-12T04:24:55.484Z,39.60
2017-12-12T04:27:23.080Z,42.00
2017-12-12T04:29:50.648Z,36.20
2017-12-12T04:32:18.172Z,36.97
2017-12-12T04:34:45.708Z,29.77
2017-12-12T04:37:13.255Z,31.50
2017-12-12T04:39:40.791Z,20.97
2017-12-12T04:42:08.376Z,31.70
2017-12-12T04:44:35.929Z,39.17
2017-12-12T04:47:03.472Z,25.50
2017-12-12T04:49:31.047Z,29.53
2017-12-12T04:51:58.562Z,28.07
2017-12-12T04:54:26.092Z,33.03
2017-12-12T04:56:53.648Z,29.20
2017-12-12T04:59:21.212Z,33.70
2017-12-12T05:01:48.743Z,44.83
2017-12-12T05:04:16.275Z,27.43
2017-12-12T05:06:43.836Z,35.03
2017-12-12T05:09:11.360Z,29.10
2017-12-12T05:11:38.900Z,30.33
2017-12-12T05:14:06.460Z,24.37
2017-12-12T05:16:33.977Z,24.40
2017-12-12T05:19:01.541Z,27.40
2017-12-12T05:21:29.079Z,16.40
2017-12-12T05:23:57.670Z,20.73
2017-12-12T05:26:25.188Z,21.60
2017-12-12T05:28:52.772Z,21.43
2017-12-12T05:31:20.287Z,22.23
2017-12-12T05:33:47.798Z,16.10
2017-12-12T05:36:15.356Z,18.20
2017-12-12T05:38:42.917Z,20.43
2017-12-12T05:41:10.436Z,27.53
2017-12-12T05:43:39.020Z,22.83
2017-12-12T05:46:06.573Z,17.73
2017-12-12T05:48:34.109Z,28.00
2017-12-12T05:51:01.688Z,23.30
2017-12-12T05:53:29.221Z,36.13
2017-12-12T05:55:56.742Z,23.00
2017-12-12T05:58:24.291Z,27.10
2017-12-12T06:00:51.819Z,18.70
2017-12-12T06:03:19.405Z,23.47
2017-12-12T06:05:46.923Z,24.07
2017-12-12T06:08:14.440Z,25.73
2017-12-12T06:10:42.024Z,19.37
2017-12-12T06:13:09.575Z,38.10
2017-12-12T06:15:37.098Z,22.73
2017-12-12T06:18:04.653Z,22.17
2017-12-12T06:20:32.230Z,28.40
2017-12-12T06:22:59.772Z,20.60
2017-12-12T06:25:27.325Z,27.57
2017-12-12T06:27:54.860Z,29.03
2017-12-12T06:30:22.424Z,26.83
2017-12-12T06:32:49.961Z,34.03
2017-12-12T06:35:17.530Z,30.40
2017-12-12T06:37:45.062Z,31.33
2017-12-12T06:40:12.576Z,26.40
2017-12-12T06:42:40.140Z,27.57
2017-12-12T06:45:07.699Z,26.13
2017-12-12T06:47:35.227Z,29.17
2017-12-12T06:50:02.797Z,30.97
2017-12-12T06:52:30.337Z,29.80
2017-12-12T06:54:57.885Z,28.80
2017-12-12T06:57:25.430Z,32.57
2017-12-12T06:59:53.009Z,28.70
2017-12-12T07:02:20.557Z,29.07
2017-12-12T07:04:48.076Z,30.77
2017-12-12T07:07:15.653Z,28.57
2017-12-12T07:09:43.189Z,28.57
2017-12-12T07:12:10.728Z,27.80
2017-12-12T07:14:38.288Z,35.20
2017-12-12T07:17:05.868Z,32.00
2017-12-12T07:19:33.414Z,27.60
2017-12-12T07:22:00.937Z,33.10
2017-12-12T07:24:28.486Z,31.30
2017-12-12T07:26:56.011Z,36.80
2017-12-12T07:29:23.551Z,40.10
2017-12-12T07:31:51.182Z,30.13
2017-12-12T07:34:18.682Z,22.97
2017-12-12T07:36:46.208Z,21.67
2017-12-12T07:39:13.780Z,15.30
2017-12-12T07:41:41.313Z,23.97
2017-12-12T07:44:08.821Z,23.83
2017-12-12T07:46:36.365Z,21.67
2017-12-12T07:49:03.900Z,21.67
2017-12-12T07:51:31.467Z,24.63
2017-12-12T07:53:58.985Z,21.63
2017-12-12T07:56:26.508Z,23.70
2017-12-12T07:58:54.096Z,21.30
2017-12-12T08:01:21.603Z,21.47
2017-12-12T08:03:49.121Z,19.50
2017-12-12T08:06:16.764Z,24.37
2017-12-12T08:08:44.291Z,18.20
2017-12-12T08:11:11.890Z,30.63
2017-12-12T08:13:39.402Z,26.03
2017-12-12T08:16:06.916Z,30.43
2017-12-12T08:18:34.489Z,33.47
2017-12-12T08:21:02.009Z,31.23
2017-12-12T08:23:29.521Z,23.27
2017-12-12T08:25:57.102Z,21.97
2017-12-12T08:28:24.644Z,26.83
2017-12-12T08:30:52.157Z,23.37
2017-12-12T08:33:19.720Z,28.03
2017-12-12T08:35:47.259Z,29.30
2017-12-12T08:38:14.773Z,25.17
2017-12-12T08:40:42.322Z,22.20
2017-12-12T08:43:09.836Z,25.00
2017-12-12T08:45:37.421Z,25.13
2017-12-12T08:48:04.936Z,20.80
2017-12-12T08:50:32.475Z,20.43
2017-12-12T08:53:00.045Z,14.50
2017-12-12T08:55:27.553Z,18.43
2017-12-12T08:57:55.077Z,21.70
2017-12-12T09:00:22.669Z,21.20
2017-12-12T09:02:50.181Z,15.57
2017-12-12T09:05:17.709Z,14.50
2017-12-12T09:07:45.257Z,19.30
2017-12-12T09:10:12.786Z,18.10
2017-12-12T09:12:40.347Z,6.77
2017-12-12T09:15:07.864Z,16.80
2017-12-12T09:17:35.393Z,13.07
2017-12-12T09:20:02.947Z,16.73
2017-12-12T09:22:30.499Z,14.10
2017-12-12T09:24:58.020Z,12.60
2017-12-12T09:27:25.557Z,12.47
2017-12-12T09:29:53.126Z,11.90
2017-12-12T09:32:20.645Z,15.93
2017-12-12T09:34:48.174Z,12.70
2017-12-12T09:37:15.737Z,13.83
2017-12-12T09:39:43.265Z,13.40
2017-12-12T09:42:10.793Z,10.00
2017-12-12T09:44:38.352Z,14.50
2017-12-12T09:47:05.889Z,12.87
2017-12-12T09:49:33.399Z,15.30
2017-12-12T09:52:00.972Z,12.07
2017-12-12T09:54:28.494Z,16.53
2017-12-12T09:56:56.032Z,19.23
2017-12-12T09:59:23.535Z,8.37
2017-12-12T10:01:51.089Z,14.50
2017-12-12T10:04:18.604Z,12.30
2017-12-12T10:06:46.170Z,11.77
2017-12-12T10:09:13.756Z,26.43
2017-12-12T10:11:41.358Z,19.37
2017-12-12T10:14:08.863Z,12.87
2017-12-12T10:16:36.448Z,15.97
2017-12-12T10:19:03.972Z,15.40
2017-12-12T10:21:31.493Z,17.73
2017-12-12T10:23:59.042Z,20.73
2017-12-12T10:26:26.641Z,22.00
2017-12-12T10:28:54.167Z,24.27
2017-12-12T10:31:21.700Z,23.37
2017-12-12T10:33:49.311Z,23.87
2017-12-12T10:36:16.832Z,16.00
2017-12-12T10:38:44.457Z,17.13
2017-12-12T10:41:12.016Z,19.40
2017-12-12T10:43:39.628Z,27.03
2017-12-12T10:46:07.201Z,13.17
2017-12-12T10:48:34.779Z,17.30
2017-12-12T10:51:02.341Z,15.40
2017-12-12T10:53:29.905Z,14.87
2017-12-12T10:55:57.468Z,13.40
2017-12-12T10:58:25.053Z,17.80
2017-12-12T11:00:52.584Z,18.60
2017-12-12T11:03:20.112Z,12.50
2017-12-12T11:05:47.662Z,14.93
2017-12-12T11:08:15.179Z,15.87
2017-12-12T11:10:42.735Z,15.57
2017-12-12T11:13:10.251Z,12.13
2017-12-12T11:15:37.769Z,19.73
2017-12-12T11:18:05.309Z,14.10
2017-12-12T11:20:32.826Z,8.50
2017-12-12T11:23:00.400Z,9.97
2017-12-12T11:25:27.927Z,17.43
2017-12-12T11:27:55.479Z,15.20
2017-12-12T11:30:23.040Z,19.33
2017-12-12T11:32:50.581Z,9.73
2017-12-12T11:35:18.140Z,20.57
2017-12-12T11:37:45.642Z,14.87
2017-12-12T11:40:13.209Z,12.60
2017-12-12T11:42:40.729Z,21.43
2017-12-12T11:45:08.259Z,15.37
2017-12-12T11:47:35.833Z,10.23
2017-12-12T11:50:03.408Z,14.53
2017-12-12T11:52:30.939Z,20.10
2017-12-12T11:54:58.514Z,18.90
2017-12-12T11:57:26.064Z,21.93
2017-12-12T11:59:53.620Z,23.43
2017-12-12T12:02:21.186Z,13.87
2017-12-12T12:04:48.720Z,16.00
2017-12-12T12:07:16.369Z,23.23
2017-12-12T12:09:43.929Z,16.97
2017-12-12T12:12:11.470Z,15.13
2017-12-12T12:14:39.033Z,13.40
2017-12-12T12:17:06.582Z,9.80
2017-12-12T12:19:34.124Z,13.17
2017-12-12T12:22:01.714Z,24.80
2017-12-12T12:24:29.252Z,17.80
2017-12-12T12:26:56.787Z,7.10
2017-12-12T12:29:24.369Z,12.37
2017-12-12T12:31:51.895Z,14.43
2017-12-12T12:34:19.454Z,14.40
2017-12-12T12:36:47.040Z,15.33
2017-12-12T12:39:14.556Z,14.27
2017-12-12T12:41:42.072Z,13.10
2017-12-12T12:44:09.636Z,14.50
2017-12-12T12:46:37.253Z,18.57
2017-12-12T12:49:04.820Z,12.83
2017-12-12T12:51:32.352Z,15.10
2017-12-12T12:53:59.881Z,23.37
2017-12-12T12:56:27.426Z,16.53
2017-12-12T12:58:54.963Z,16.23
2017-12-12T13:01:22.520Z,15.30
2017-12-12T13:03:50.044Z,20.50
2017-12-12T13:06:17.585Z,14.00
2017-12-12T13:08:45.151Z,17.40
2017-12-12T13:11:12.664Z,17.07
2017-12-12T13:13:40.176Z,16.43
2017-12-12T13:16:07.760Z,13.83
2017-12-12T13:18:35.282Z,18.27
2017-12-12T13:21:02.800Z,11.70
2017-12-12T13:23:30.360Z,15.50
2017-12-12T13:25:57.992Z,21.07
2017-12-12T13:28:25.565Z,18.53
2017-12-12T13:30:53.099Z,14.47
2017-12-12T13:33:20.665Z,14.27
2017-12-12T13:35:48.196Z,15.73
2017-12-12T13:38:15.732Z,26.77
2017-12-12T13:40:43.312Z,31.50
2017-12-12T13:43:10.824Z,16.00
2017-12-12T13:45:38.472Z,18.57
2017-12-12T13:48:06.041Z,22.37
2017-12-12T13:50:33.556Z,18.67
2017-12-12T13:53:01.077Z,22.03
2017-12-12T13:55:28.616Z,28.80
2017-12-12T13:57:56.192Z,26.80
2017-12-12T14:00:23.765Z,20.20
2017-12-12T14:02:51.283Z,23.93
2017-12-12T14:05:18.848Z,22.30
2017-12-12T14:07:46.366Z,22.63
2017-12-12T14:10:13.886Z,21.77
2017-12-12T14:12:41.433Z,23.80
2017-12-12T14:15:08.991Z,23.43
2017-12-12T14:17:36.514Z,21.83
2017-12-12T14:20:04.047Z,20.30
2017-12-12T14:22:31.579Z,15.30
2017-12-12T14:24:59.093Z,20.20
2017-12-12T14:27:26.641Z,18.90
2017-12-12T14:29:54.156Z,18.53
2017-12-12T14:32:21.720Z,21.53
2017-12-12T14:34:49.231Z,18.83
2017-12-12T14:37:16.736Z,17.70
2017-12-12T14:39:44.305Z,26.47
2017-12-12T14:42:11.830Z,17.30
2017-12-12T14:44:39.345Z,17.73
2017-12-12T14:47:06.886Z,20.40
2017-12-12T14:49:34.439Z,17.27
2017-12-12T14:52:01.952Z,19.13
2017-12-12T14:54:29.468Z,17.20
2017-12-12T14:56:57.040Z,19.87
2017-12-12T14:59:24.571Z,24.73
2017-12-12T15:01:52.090Z,23.57
2017-12-12T15:04:19.629Z,16.67
2017-12-12T15:06:47.145Z,22.03
2017-12-12T15:09:14.712Z,21.43
2017-12-12T15:11:42.242Z,18.40
2017-12-12T15:14:09.764Z,25.40
2017-12-12T15:16:37.309Z,16.80
2017-12-12T15:19:04.852Z,25.30
2017-12-12T15:21:32.434Z,16.00
2017-12-12T15:23:59.943Z,26.63
2017-12-12T15:26:27.451Z,20.43
2017-12-12T15:28:55.021Z,22.73
2017-12-12T15:31:22.540Z,21.87
2017-12-12T15:33:50.070Z,16.73
2017-12-12T15:36:17.646Z,21.77
2017-12-12T15:38:45.211Z,23.97
2017-12-12T15:41:12.744Z,24.13
2017-12-12T15:43:40.340Z,20.93
2017-12-12T15:46:07.877Z,22.37
2017-12-12T15:48:35.463Z,20.87
2017-12-12T15:51:03.005Z,27.53
2017-12-12T15:53:30.587Z,16.03
2017-12-12T15:55:58.115Z,23.77
2017-12-12T15:58:25.633Z,20.50
2017-12-12T16:00:53.317Z,22.73
2017-12-12T16:03:20.836Z,17.37
2017-12-12T16:05:48.427Z,26.97
2017-12-12T16:08:15.964Z,41.20
2017-12-12T16:10:43.517Z,60.60
2017-12-12T16:13:11.073Z,30.37
2017-12-12T16:15:38.602Z,27.40
2017-12-12T16:18:06.151Z,19.50
2017-12-12T16:20:33.717Z,22.03
2017-12-12T16:23:01.255Z,12.73
2017-12-12T16:25:28.788Z,10.90
2017-12-12T16:27:56.342Z,10.50
2017-12-12T16:30:23.851Z,8.63
2017-12-12T16:32:51.386Z,8.37
2017-12-12T16:35:18.938Z,4.97
2017-12-12T16:37:46.477Z,4.03
2017-12-12T16:40:14.077Z,8.47
2017-12-12T16:42:41.608Z,4.50
2017-12-12T16:45:09.137Z,2.90
2017-12-12T16:47:36.704Z,5.33
2017-12-12T16:50:04.228Z,3.77
2017-12-12T16:52:31.751Z,11.63
2017-12-12T16:54:59.314Z,9.23
2017-12-12T16:57:26.823Z,7.40
2017-12-12T16:59:54.369Z,20.40
2017-12-12T17:02:21.893Z,14.00
2017-12-12T17:04:49.452Z,22.10
2017-12-12T17:07:16.993Z,27.13
2017-12-12T17:09:44.513Z,28.20
2017-12-12T17:12:12.097Z,35.73
2017-12-12T17:14:39.620Z,39.63
2017-12-12T17:17:07.144Z,36.00
2017-12-12T17:19:34.700Z,41.00
2017-12-12T17:22:02.305Z,44.80
2017-12-12T17:24:29.829Z,47.13
2017-12-12T17:26:57.339Z,50.63
2017-12-12T17:29:24.902Z,58.23
2017-12-12T17:31:52.426Z,55.07
2017-12-12T17:34:19.957Z,58.97
2017-12-12T17:36:47.508Z,57.07
2017-12-12T17:39:15.039Z,62.57
2017-12-12T17:41:42.628Z,88.47
2017-12-12T17:44:10.153Z,68.83
2017-12-12T17:46:37.667Z,72.17
2017-12-12T17:49:05.236Z,68.07
2017-12-12T17:51:32.769Z,66.80
2017-12-12T17:54:00.304Z,56.53
2017-12-12T17:56:27.853Z,64.93
2017-12-12T17:58:55.474Z,60.03
2017-12-12T18:01:22.999Z,63.70
2017-12-12T18:03:50.530Z,63.57
2017-12-12T18:06:18.075Z,77.20
2017-12-12T18:08:45.623Z,62.40
2017-12-12T18:11:13.193Z,68.33
2017-12-12T18:13:40.715Z,68.67
2017-12-12T18:16:08.270Z,75.47
2017-12-12T18:18:35.838Z,72.90
2017-12-12T18:21:03.355Z,82.00
2017-12-12T18:23:31.016Z,76.80
2017-12-12T18:25:58.570Z,74.17
2017-12-12T18:28:26.104Z,72.67
2017-12-12T18:30:53.710Z,78.50
2017-12-12T18:33:21.228Z,67.93
2017-12-12T18:35:48.752Z,63.03
2017-12-12T18:38:16.311Z,73.17
2017-12-12T18:40:43.853Z,85.07
2017-12-12T18:43:11.406Z,79.60
2017-12-12T18:45:38.927Z,78.40
2017-12-12T18:48:06.510Z,111.57
2017-12-12T18:50:34.062Z,86.00
2017-12-12T18:53:01.598Z,109.43
2017-12-12T18:55:29.136Z,94.00
2017-12-12T18:57:56.660Z,90.80
2017-12-12T19:00:24.246Z,85.87
2017-12-12T19:02:51.759Z,94.17
2017-12-12T19:05:19.332Z,88.73
2017-12-12T19:07:46.948Z,88.53
2017-12-12T19:10:14.481Z,101.67
2017-12-12T19:12:42.033Z,94.03
2017-12-12T19:15:09.615Z,97.53
2017-12-12T19:17:37.170Z,101.40
2017-12-12T19:20:04.720Z,106.60
2017-12-12T19:22:32.312Z,90.67
2017-12-12T19:24:59.839Z,105.53
2017-12-12T19:27:27.395Z,109.70
2017-12-12T19:29:54.953Z,105.33
2017-12-12T19:32:22.544Z,99.57
2017-12-12T19:34:50.075Z,101.20
2017-12-12T19:37:17.616Z,117.83
2017-12-12T19:39:45.168Z,98.27
2017-12-12T19:42:12.903Z,97.37
2017-12-12T19:44:40.496Z,93.30
2017-12-12T19:47:08.029Z,113.30
2017-12-12T19:49:35.566Z,106.13
2017-12-12T19:52:03.190Z,93.53
2017-12-12T19:54:30.753Z,108.50
2017-12-12T19:56:58.342Z,121.30
2017-12-12T19:59:25.877Z,103.60
2017-12-12T20:01:53.472Z,92.93
2017-12-12T20:04:21.033Z,103.67
2017-12-12T20:06:48.556Z,99.50
2017-12-12T20:09:16.140Z,103.03
2017-12-12T20:11:43.712Z,97.47
2017-12-12T20:14:11.231Z,104.47
2017-12-12T20:16:38.787Z,104.73
2017-12-12T20:19:06.371Z,96.20
2017-12-12T20:21:33.883Z,93.13
2017-12-12T20:24:01.409Z,93.30
2017-12-12T20:26:28.959Z,90.70
2017-12-12T20:28:56.493Z,93.63
2017-12-12T20:31:24.132Z,90.87
2017-12-12T20:33:51.722Z,99.53
2017-12-12T20:36:19.253Z,85.90
2017-12-12T20:38:46.837Z,97.60
2017-12-12T20:41:14.366Z,91.40
2017-12-12T20:43:41.894Z,90.03
2017-12-12T20:46:09.445Z,109.73
2017-12-12T20:48:36.975Z,99.00
2017-12-12T20:51:04.535Z,99.70
2017-12-12T20:53:32.051Z,113.97
2017-12-12T20:55:59.637Z,116.30
2017-12-12T20:58:27.172Z,103.60
2017-12-12T21:00:54.716Z,110.40
2017-12-12T21:03:22.316Z,108.33
2017-12-12T21:05:49.850Z,99.27
2017-12-12T21:08:17.389Z,128.03
2017-12-12T21:10:44.964Z,112.53
2017-12-12T21:13:12.504Z,113.60
2017-12-12T21:15:40.035Z,123.20
2017-12-12T21:18:07.621Z,124.90
2017-12-12T21:20:35.184Z,115.90
2017-12-12T21:23:02.705Z,96.13
2017-12-12T21:25:30.272Z,98.93
2017-12-12T21:27:57.793Z,87.13
2017-12-12T21:30:25.316Z,124.80
2017-12-12T21:32:52.901Z,104.80
2017-12-12T21:35:20.437Z,100.13
2017-12-12T21:37:47.972Z,105.67
2017-12-12T21:40:15.521Z,103.50
2017-12-12T21:42:43.109Z,114.73
2017-12-12T21:45:10.638Z,112.23
2017-12-12T21:47:39.059Z,95.50
2017-12-12T21:50:06.632Z,95.30
2017-12-12T21:52:34.246Z,101.60
2017-12-12T21:55:01.760Z,104.27
2017-12-12T21:57:29.299Z,76.77
2017-12-12T21:59:56.844Z,94.10
2017-12-12T22:02:24.389Z,106.60
2017-12-12T22:04:51.927Z,85.30
2017-12-12T22:07:19.451Z,108.83
2017-12-12T22:09:47.046Z,108.67
2017-12-12T22:12:14.564Z,88.07
2017-12-12T22:14:42.076Z,93.30
2017-12-12T22:17:09.680Z,87.67
2017-12-12T22:19:37.210Z,83.23
2017-12-12T22:22:04.740Z,90.83
2017-12-12T22:24:32.317Z,80.00
2017-12-12T22:26:59.847Z,90.63
2017-12-12T22:29:27.381Z,78.67
2017-12-12T22:31:54.933Z,86.23
2017-12-12T22:34:22.454Z,82.20
2017-12-12T22:36:50.024Z,78.47
2017-12-12T22:39:17.541Z,82.07
2017-12-12T22:41:45.067Z,88.03
2017-12-12T22:44:12.603Z,86.30
2017-12-12T22:46:40.115Z,77.50
2017-12-12T22:49:07.698Z,87.63
2017-12-12T22:51:35.212Z,86.07
2017-12-12T22:54:02.723Z,91.87
2017-12-12T22:56:30.273Z,86.37
2017-12-12T22:58:57.798Z,81.83
2017-12-12T23:01:25.374Z,82.87
2017-12-12T23:03:52.978Z,100.50
2017-12-12T23:06:20.492Z,86.27
2017-12-12T23:08:48.012Z,96.03
2017-12-12T23:11:15.585Z,110.37
2017-12-12T23:13:43.117Z,111.00
2017-12-12T23:16:10.640Z,118.97
2017-12-12T23:18:38.208Z,119.53
2017-12-12T23:21:05.724Z,103.23
2017-12-12T23:23:33.320Z,111.27
2017-12-12T23:26:00.861Z,107.13
2017-12-12T23:28:28.404Z,108.23
2017-12-12T23:30:55.968Z,121.00
2017-12-12T23:33:23.552Z,127.33
2017-12-12T23:35:51.069Z,110.73
2017-12-12T23:38:18.598Z,121.87
2017-12-12T23:40:46.163Z,115.80
2017-12-12T23:43:13.690Z,109.17
2017-12-12T23:45:41.221Z,103.70
2017-12-12T23:48:08.814Z,132.47
2017-12-12T23:50:36.340Z,117.90
2017-12-12T23:53:03.872Z,127.17
2017-12-12T23:55:31.427Z,111.63
2017-12-12T23:57:58.995Z,99.03
